createdAt,value
2022-12-23T00:01:34.060Z,8.82
2022-12-23T00:04:01.507Z,8.63
2022-12-23T00:06:28.668Z,9.02
2022-12-23T00:08:58.165Z,9.82
2022-12-23T00:11:26.095Z,10.02
2022-12-23T00:14:18.193Z,9.00
2022-12-23T00:16:47.934Z,10.05
2022-12-23T00:19:15.057Z,9.75
2022-12-23T00:21:42.314Z,8.85
2022-12-23T00:24:09.428Z,8.63
2022-12-23T00:26:36.506Z,9.68
2022-12-23T00:29:03.674Z,9.77
2022-12-23T00:31:30.962Z,9.88
2022-12-23T00:33:58.234Z,8.30
2022-12-23T00:36:27.609Z,10.63
2022-12-23T00:39:14.240Z,9.60
2022-12-23T00:42:00.251Z,9.50
2022-12-23T00:44:27.539Z,10.15
2022-12-23T00:46:54.975Z,9.68
2022-12-23T00:49:41.137Z,9.80
2022-12-23T00:52:09.377Z,10.15
2022-12-23T00:54:36.552Z,9.38
2022-12-23T00:57:03.683Z,10.40
2022-12-23T00:59:30.843Z,10.55
2022-12-23T01:02:16.793Z,9.13
2022-12-23T01:05:02.611Z,10.20
2022-12-23T01:07:29.684Z,8.55
2022-12-23T01:09:56.815Z,9.57
2022-12-23T01:12:24.192Z,9.40
2022-12-23T01:14:51.313Z,9.93
2022-12-23T01:17:18.948Z,7.35
2022-12-23T01:19:46.281Z,7.65
2022-12-23T01:22:13.435Z,8.82
2022-12-23T01:24:40.751Z,10.10
2022-12-23T01:27:07.897Z,10.50
2022-12-23T01:29:35.063Z,9.25
2022-12-23T01:32:02.469Z,9.73
2022-12-23T01:34:36.038Z,8.60
2022-12-23T01:37:03.952Z,9.45
2022-12-23T01:39:31.074Z,9.77
2022-12-23T01:42:16.795Z,10.82
2022-12-23T01:45:03.064Z,7.80
2022-12-23T01:47:30.348Z,7.90
2022-12-23T01:50:07.708Z,8.88
2022-12-23T01:52:36.802Z,9.60
2022-12-23T01:55:04.205Z,9.10
2022-12-23T01:57:31.372Z,7.18
2022-12-23T02:00:17.136Z,8.95
2022-12-23T02:03:03.537Z,10.23
2022-12-23T02:05:30.724Z,8.23
2022-12-23T02:08:16.792Z,8.52
2022-12-23T02:10:58.968Z,9.10
2022-12-23T02:13:32.220Z,7.20
2022-12-23T02:16:19.471Z,6.65
2022-12-23T02:18:57.370Z,7.65
2022-12-23T02:21:39.541Z,8.77
2022-12-23T02:24:15.812Z,8.63
2022-12-23T02:26:51.702Z,7.55
2022-12-23T02:29:18.778Z,7.45
2022-12-23T02:32:00.770Z,8.82
2022-12-23T02:34:27.841Z,7.93
2022-12-23T02:37:00.159Z,8.98
2022-12-23T02:39:45.902Z,8.45
2022-12-23T02:42:23.557Z,7.18
2022-12-23T02:44:56.791Z,6.15
2022-12-23T02:47:26.115Z,5.80
2022-12-23T02:49:55.058Z,5.18
2022-12-23T02:52:24.087Z,5.00
2022-12-23T02:54:53.352Z,4.85
2022-12-23T02:57:22.255Z,4.07
2022-12-23T02:59:51.245Z,5.03
2022-12-23T03:02:18.841Z,4.50
2022-12-23T03:04:49.105Z,4.47
2022-12-23T03:07:18.930Z,5.35
2022-12-23T03:10:05.001Z,5.85
2022-12-23T03:12:51.778Z,5.70
2022-12-23T03:15:37.947Z,4.88
2022-12-23T03:18:07.820Z,5.63
2022-12-23T03:20:53.370Z,6.03
2022-12-23T03:23:20.416Z,5.25
2022-12-23T03:26:26.193Z,5.72
2022-12-23T03:29:09.583Z,5.38
2022-12-23T03:31:38.504Z,5.00
2022-12-23T03:34:13.285Z,5.97
2022-12-23T03:36:46.653Z,5.20
2022-12-23T03:39:17.080Z,5.63
2022-12-23T03:41:48.065Z,5.90
2022-12-23T03:44:20.531Z,5.93
2022-12-23T03:46:51.135Z,6.53
2022-12-23T03:49:38.247Z,5.75
2022-12-23T03:52:20.578Z,6.20
2022-12-23T03:54:53.677Z,5.22
2022-12-23T03:57:22.115Z,5.07
2022-12-23T03:59:51.477Z,4.65
2022-12-23T04:02:24.595Z,5.80
2022-12-23T04:04:52.094Z,5.45
2022-12-23T04:07:22.226Z,4.57
2022-12-23T04:09:50.380Z,5.45
2022-12-23T04:12:18.605Z,4.15
2022-12-23T04:14:49.522Z,6.25
2022-12-23T04:17:17.195Z,4.40
2022-12-23T04:19:48.172Z,6.13
2022-12-23T04:22:16.025Z,5.32
2022-12-23T04:24:43.615Z,5.38
2022-12-23T04:27:13.376Z,5.65
2022-12-23T04:29:40.513Z,5.10
2022-12-23T04:32:08.526Z,5.18
2022-12-23T04:34:35.784Z,5.82
2022-12-23T04:37:03.015Z,5.55
2022-12-23T04:39:30.142Z,6.03
2022-12-23T04:41:57.316Z,5.30
2022-12-23T04:44:24.504Z,4.88
2022-12-23T04:46:51.925Z,7.28
2022-12-23T04:49:19.332Z,6.25
2022-12-23T04:51:46.428Z,5.97
2022-12-23T04:54:13.609Z,7.40
2022-12-23T04:56:40.875Z,7.20
2022-12-23T04:59:08.133Z,5.93
2022-12-23T05:01:35.357Z,5.65
2022-12-23T05:04:02.555Z,6.30
2022-12-23T05:06:29.702Z,7.40
2022-12-23T05:08:57.228Z,7.15
2022-12-23T05:11:24.327Z,7.72
2022-12-23T05:13:51.427Z,8.60
2022-12-23T05:16:18.622Z,8.70
2022-12-23T05:18:45.969Z,6.88
2022-12-23T05:21:13.719Z,6.63
2022-12-23T05:23:40.866Z,8.75
2022-12-23T05:26:08.088Z,8.38
2022-12-23T05:28:35.491Z,8.02
2022-12-23T05:31:03.729Z,8.38
2022-12-23T05:33:31.409Z,9.32
2022-12-23T05:35:58.693Z,8.55
2022-12-23T05:38:25.885Z,7.70
2022-12-23T05:40:53.053Z,7.97
2022-12-23T05:43:20.239Z,7.43
2022-12-23T05:45:47.856Z,8.60
2022-12-23T05:48:15.071Z,8.35
2022-12-23T05:50:42.282Z,6.57
2022-12-23T05:53:09.612Z,8.38
2022-12-23T05:55:36.880Z,9.20
2022-12-23T05:58:04.369Z,9.10
2022-12-23T06:00:31.507Z,7.65
2022-12-23T06:02:58.748Z,9.00
2022-12-23T06:05:26.008Z,8.82
2022-12-23T06:07:53.108Z,8.93
2022-12-23T06:10:20.345Z,8.90
2022-12-23T06:12:47.525Z,9.18
2022-12-23T06:15:15.594Z,9.00
2022-12-23T06:17:42.865Z,9.68
2022-12-23T06:20:17.960Z,9.15
2022-12-23T06:22:47.443Z,9.35
2022-12-23T06:25:14.661Z,8.80
2022-12-23T06:27:41.765Z,8.63
2022-12-23T06:30:09.232Z,9.70
2022-12-23T06:32:38.845Z,10.02
2022-12-23T06:35:06.928Z,8.80
2022-12-23T06:37:34.061Z,9.10
2022-12-23T06:40:01.220Z,8.48
2022-12-23T06:42:28.428Z,7.20
2022-12-23T06:44:55.534Z,8.95
2022-12-23T06:47:22.636Z,9.60
2022-12-23T06:49:49.747Z,8.90
2022-12-23T06:52:17.120Z,9.60
2022-12-23T06:54:44.375Z,9.27
2022-12-23T06:57:11.454Z,9.48
2022-12-23T06:59:38.618Z,8.95
2022-12-23T07:02:06.593Z,11.10
2022-12-23T07:04:33.874Z,9.02
2022-12-23T07:07:01.149Z,10.85
2022-12-23T07:09:28.343Z,10.00
2022-12-23T07:11:55.430Z,9.38
2022-12-23T07:14:22.546Z,9.48
2022-12-23T07:16:49.997Z,9.07
2022-12-23T07:19:17.681Z,10.30
2022-12-23T07:21:44.826Z,11.23
2022-12-23T07:24:11.930Z,10.68
2022-12-23T07:26:39.089Z,10.13
2022-12-23T07:29:06.289Z,10.68
2022-12-23T07:31:33.735Z,10.73
2022-12-23T07:34:00.941Z,10.68
2022-12-23T07:36:28.047Z,11.02
2022-12-23T07:38:55.220Z,11.38
2022-12-23T07:41:22.371Z,11.10
2022-12-23T07:43:49.632Z,11.38
2022-12-23T07:46:16.762Z,10.50
2022-12-23T07:48:43.968Z,10.35
2022-12-23T07:51:11.313Z,10.63
2022-12-23T07:53:38.629Z,10.88
2022-12-23T07:56:06.209Z,10.70
2022-12-23T07:58:33.368Z,11.50
2022-12-23T08:01:01.787Z,11.65
2022-12-23T08:03:29.200Z,11.88
2022-12-23T08:06:06.618Z,11.38
2022-12-23T08:08:34.011Z,14.77
2022-12-23T08:11:02.019Z,10.65
2022-12-23T08:13:29.342Z,10.85
2022-12-23T08:15:57.580Z,11.43
2022-12-23T08:18:25.114Z,13.13
2022-12-23T08:20:59.372Z,11.90
2022-12-23T08:23:27.057Z,12.07
2022-12-23T08:26:06.576Z,11.27
2022-12-23T08:28:34.160Z,11.65
2022-12-23T08:31:05.797Z,10.20
2022-12-23T08:33:33.796Z,11.75
2022-12-23T08:36:00.988Z,12.18
2022-12-23T08:38:28.123Z,10.95
2022-12-23T08:40:55.276Z,10.20
2022-12-23T08:43:22.361Z,10.90
2022-12-23T08:45:49.775Z,10.02
2022-12-23T08:48:17.084Z,9.82
2022-12-23T08:50:45.919Z,12.45
2022-12-23T08:55:44.571Z,10.82
2022-12-23T08:58:12.919Z,10.77
2022-12-23T09:00:40.170Z,10.30
2022-12-23T09:03:07.877Z,10.50
2022-12-23T09:05:39.508Z,10.57
2022-12-23T09:08:06.788Z,11.40
2022-12-23T09:10:33.885Z,11.70
2022-12-23T09:13:01.078Z,12.27
2022-12-23T09:15:28.324Z,11.63
2022-12-23T09:17:55.826Z,11.23
2022-12-23T09:20:22.959Z,11.43
2022-12-23T09:22:50.092Z,13.35
2022-12-23T09:25:17.286Z,11.25
2022-12-23T09:27:44.457Z,11.55
2022-12-23T09:30:11.957Z,12.32
2022-12-23T09:32:39.113Z,11.43
2022-12-23T09:35:06.494Z,10.73
2022-12-23T09:37:33.917Z,10.45
2022-12-23T09:40:01.097Z,11.27
2022-12-23T09:42:37.328Z,12.25
2022-12-23T09:45:13.108Z,12.82
2022-12-23T09:47:40.911Z,11.82
2022-12-23T09:50:31.472Z,9.88
2022-12-23T09:53:03.720Z,15.25
2022-12-23T09:55:49.852Z,11.45
2022-12-23T09:58:29.030Z,9.30
2022-12-23T10:01:07.702Z,9.50
2022-12-23T10:03:40.051Z,8.77
2022-12-23T10:06:28.277Z,7.45
2022-12-23T10:08:58.527Z,8.38
2022-12-23T10:11:27.527Z,8.93
2022-12-23T10:13:55.450Z,8.40
2022-12-23T10:16:24.761Z,8.88
2022-12-23T10:19:00.063Z,9.25
2022-12-23T10:21:31.297Z,8.77
2022-12-23T10:24:00.526Z,9.80
2022-12-23T10:26:39.742Z,8.10
2022-12-23T10:29:19.368Z,9.20
2022-12-23T10:32:05.782Z,9.43
2022-12-23T10:34:38.233Z,8.95
2022-12-23T10:37:29.087Z,10.23
2022-12-23T10:40:16.455Z,10.93
2022-12-23T10:42:51.826Z,9.90
2022-12-23T10:45:31.782Z,10.07
2022-12-23T10:48:17.493Z,10.65
2022-12-23T10:50:46.201Z,11.18
2022-12-23T10:55:40.475Z,13.00
2022-12-23T10:58:18.609Z,11.98
2022-12-23T11:00:49.118Z,11.07
2022-12-23T11:03:20.983Z,12.20
2022-12-23T11:05:51.311Z,13.07
2022-12-23T11:08:19.132Z,11.98
2022-12-23T11:11:25.089Z,11.70
2022-12-23T11:13:52.300Z,12.80
2022-12-23T11:16:22.898Z,12.75
2022-12-23T11:18:57.506Z,14.23
2022-12-23T11:21:24.842Z,13.60
2022-12-23T11:24:15.458Z,14.10
2022-12-23T11:26:43.116Z,14.77
2022-12-23T11:29:11.903Z,14.77
2022-12-23T11:36:33.828Z,13.38
2022-12-23T11:39:07.532Z,15.27
2022-12-23T11:41:37.250Z,14.02
2022-12-23T11:44:11.715Z,14.35
2022-12-23T11:46:38.942Z,14.40
2022-12-23T11:49:15.368Z,15.57
2022-12-23T11:51:43.255Z,14.73
2022-12-23T11:54:17.032Z,15.55
2022-12-23T11:56:45.040Z,15.40
2022-12-23T11:59:41.753Z,16.05
2022-12-23T12:02:31.993Z,15.25
2022-12-23T12:05:20.948Z,13.60
2022-12-23T12:07:49.229Z,14.35
2022-12-23T12:10:33.615Z,13.93
2022-12-23T12:13:03.327Z,15.55
2022-12-23T12:15:33.574Z,15.27
2022-12-23T12:18:01.594Z,13.00
2022-12-23T12:20:37.579Z,13.65
2022-12-23T12:23:12.321Z,14.52
2022-12-23T12:25:44.701Z,14.73
2022-12-23T12:28:18.137Z,13.80
2022-12-23T12:30:49.221Z,12.45
2022-12-23T12:33:16.367Z,13.23
2022-12-23T12:35:54.268Z,13.85
2022-12-23T12:38:25.680Z,12.65
2022-12-23T12:41:02.102Z,12.27
2022-12-23T12:43:32.705Z,11.95
2022-12-23T12:46:08.595Z,13.00
2022-12-23T12:48:41.967Z,11.88
2022-12-23T12:51:19.572Z,10.10
2022-12-23T12:53:54.320Z,10.10
2022-12-23T12:56:30.507Z,9.73
2022-12-23T12:58:57.862Z,11.88
2022-12-23T13:01:48.062Z,10.65
2022-12-23T13:04:33.482Z,10.55
2022-12-23T13:07:06.110Z,9.35
2022-12-23T13:09:51.836Z,10.50
2022-12-23T13:12:39.204Z,9.57
2022-12-23T13:15:30.119Z,9.40
2022-12-23T13:18:01.800Z,10.13
2022-12-23T13:20:38.522Z,9.50
2022-12-23T13:25:57.988Z,7.57
2022-12-23T13:28:36.998Z,8.93
2022-12-23T13:31:04.579Z,8.73
2022-12-23T13:33:31.753Z,9.07
2022-12-23T13:36:17.765Z,9.15
2022-12-23T13:38:51.011Z,9.65
2022-12-23T13:41:21.141Z,8.85
2022-12-23T13:43:54.181Z,9.27
2022-12-23T13:46:26.415Z,9.50
2022-12-23T13:49:08.890Z,7.18
2022-12-23T13:51:38.765Z,8.68
2022-12-23T13:54:30.574Z,9.13
2022-12-23T13:57:24.029Z,7.88
2022-12-23T14:00:17.199Z,7.47
2022-12-23T14:02:50.722Z,7.95
2022-12-23T14:05:38.785Z,7.57
2022-12-23T14:08:07.759Z,7.15
2022-12-23T14:10:35.579Z,7.00
2022-12-23T14:13:05.067Z,8.13
2022-12-23T14:15:32.304Z,7.38
2022-12-23T14:18:02.692Z,7.32
2022-12-23T14:20:51.991Z,7.10
2022-12-23T14:25:57.067Z,7.40
2022-12-23T14:28:42.785Z,7.20
2022-12-23T14:31:28.426Z,7.47
2022-12-23T14:34:02.753Z,6.40
2022-12-23T14:36:30.428Z,7.28
2022-12-23T14:39:23.702Z,7.43
2022-12-23T14:42:00.106Z,7.35
2022-12-23T14:44:36.542Z,7.47
2022-12-23T14:47:23.023Z,6.95
2022-12-23T14:49:50.147Z,7.55
2022-12-23T14:52:39.353Z,7.38
2022-12-23T14:55:40.830Z,7.45
2022-12-23T14:58:11.865Z,7.90
2022-12-23T15:00:50.623Z,6.53
2022-12-23T15:03:18.993Z,7.15
2022-12-23T15:05:46.750Z,6.85
2022-12-23T15:08:29.130Z,7.90
2022-12-23T15:10:57.584Z,6.80
2022-12-23T15:13:26.104Z,7.18
2022-12-23T15:16:00.706Z,6.40
2022-12-23T15:18:28.895Z,7.93
2022-12-23T15:21:14.181Z,7.45
2022-12-23T15:23:48.986Z,7.88
2022-12-23T15:26:16.149Z,7.57
2022-12-23T15:28:43.499Z,7.82
2022-12-23T15:31:24.663Z,7.68
2022-12-23T15:34:02.992Z,7.90
2022-12-23T15:36:35.631Z,6.75
2022-12-23T15:39:07.835Z,6.57
2022-12-23T15:41:42.487Z,8.93
2022-12-23T15:44:19.156Z,10.13
2022-12-23T15:46:46.482Z,8.43
2022-12-23T15:49:13.692Z,9.05
2022-12-23T15:52:06.500Z,11.30
2022-12-23T15:54:36.897Z,10.55
2022-12-23T15:57:05.310Z,11.73
2022-12-23T15:59:34.300Z,7.38
2022-12-23T16:02:58.479Z,12.75
2022-12-23T16:05:07.514Z,7.10
2022-12-23T16:07:43.903Z,11.25
2022-12-23T16:10:15.261Z,7.38
2022-12-23T16:12:42.820Z,5.95
2022-12-23T16:15:28.463Z,5.45
2022-12-23T16:18:15.677Z,7.35
2022-12-23T16:20:44.796Z,8.00
2022-12-23T16:23:12.827Z,8.02
2022-12-23T16:25:43.027Z,8.65
2022-12-23T16:28:21.568Z,9.40
2022-12-23T16:30:49.749Z,10.55
2022-12-23T16:33:20.034Z,10.02
2022-12-23T16:35:47.265Z,7.45
2022-12-23T16:38:21.804Z,9.52
2022-12-23T16:40:50.551Z,9.55
2022-12-23T16:43:18.775Z,10.85
2022-12-23T16:45:46.714Z,9.82
2022-12-23T16:48:19.982Z,43.70
2022-12-23T16:50:47.433Z,9.77
2022-12-23T16:53:15.742Z,9.68
2022-12-23T16:55:50.229Z,12.55
2022-12-23T16:58:20.040Z,14.63
2022-12-23T17:00:47.305Z,13.13
2022-12-23T17:03:17.211Z,11.55
2022-12-23T17:05:44.676Z,12.10
2022-12-23T17:08:11.911Z,10.48
2022-12-23T17:10:40.145Z,12.55
2022-12-23T17:13:07.363Z,16.33
2022-12-23T17:15:35.098Z,9.30
2022-12-23T17:18:02.279Z,8.75
2022-12-23T17:20:29.431Z,10.52
2022-12-23T17:22:58.219Z,9.45
2022-12-23T17:27:55.790Z,8.63
2022-12-23T17:30:24.851Z,9.57
2022-12-23T17:32:55.359Z,10.82
2022-12-23T17:35:22.656Z,9.68
2022-12-23T17:37:50.101Z,10.40
2022-12-23T17:40:17.924Z,10.25
2022-12-23T17:42:45.449Z,9.93
2022-12-23T17:45:26.879Z,9.18
2022-12-23T17:47:54.628Z,8.82
2022-12-23T17:50:22.119Z,8.65
2022-12-23T17:52:49.824Z,6.35
2022-12-23T17:55:24.667Z,7.43
2022-12-23T17:57:52.242Z,6.88
2022-12-23T18:00:29.892Z,5.78
2022-12-23T18:03:01.384Z,5.43
2022-12-23T18:05:30.143Z,5.78
2022-12-23T18:10:27.514Z,4.75
2022-12-23T18:12:56.242Z,4.03
2022-12-23T18:15:25.408Z,6.10
2022-12-23T18:17:53.463Z,4.90
2022-12-23T18:20:22.287Z,5.65
2022-12-23T18:25:18.850Z,7.03
2022-12-23T18:27:46.995Z,4.90
2022-12-23T18:30:15.227Z,5.40
2022-12-23T18:32:43.169Z,6.38
2022-12-23T18:35:30.426Z,8.65
2022-12-23T18:37:58.828Z,5.88
2022-12-23T18:40:32.413Z,6.00
2022-12-23T18:43:00.470Z,5.10
2022-12-23T18:45:30.604Z,7.53
2022-12-23T18:47:58.534Z,5.13
2022-12-23T18:50:26.026Z,5.97
2022-12-23T18:52:53.251Z,5.90
2022-12-23T18:55:21.032Z,5.25
2022-12-23T18:57:48.593Z,5.63
2022-12-23T19:00:18.093Z,5.03
2022-12-23T19:02:45.518Z,5.95
2022-12-23T19:05:20.771Z,5.60
2022-12-23T19:07:48.619Z,4.90
2022-12-23T19:10:21.714Z,6.05
2022-12-23T19:12:48.913Z,6.22
2022-12-23T19:15:16.501Z,4.72
2022-12-23T19:17:43.688Z,6.13
2022-12-23T19:20:13.007Z,5.70
2022-12-23T19:22:40.263Z,4.45
2022-12-23T19:25:08.029Z,6.90
2022-12-23T19:27:35.250Z,4.68
2022-12-23T19:30:03.884Z,4.93
2022-12-23T19:32:31.064Z,4.60
2022-12-23T19:34:58.171Z,4.93
2022-12-23T19:37:25.339Z,4.20
2022-12-23T19:39:52.807Z,4.88
2022-12-23T19:42:20.619Z,7.45
2022-12-23T19:44:48.015Z,4.97
2022-12-23T19:47:15.094Z,5.53
2022-12-23T19:49:42.340Z,5.07
2022-12-23T19:52:09.502Z,5.28
2022-12-23T19:54:36.604Z,4.95
2022-12-23T19:57:03.732Z,4.80
2022-12-23T19:59:30.968Z,4.53
2022-12-23T20:01:58.140Z,4.85
2022-12-23T20:04:25.435Z,4.20
2022-12-23T20:06:52.910Z,4.43
2022-12-23T20:09:20.465Z,4.97
2022-12-23T20:11:49.120Z,4.90
2022-12-23T20:14:17.882Z,3.97
2022-12-23T20:16:45.488Z,5.40
2022-12-23T20:19:12.747Z,4.30
2022-12-23T20:21:39.902Z,4.57
2022-12-23T20:24:07.468Z,3.08
2022-12-23T20:26:34.818Z,4.75
2022-12-23T20:29:02.218Z,2.97
2022-12-23T20:31:30.803Z,3.25
2022-12-23T20:33:59.629Z,3.08
2022-12-23T20:36:30.926Z,2.95
2022-12-23T20:38:58.300Z,3.67
2022-12-23T20:41:27.237Z,3.53
2022-12-23T20:44:32.586Z,2.53
2022-12-23T20:46:42.432Z,2.83
2022-12-23T20:49:09.795Z,3.83
2022-12-23T20:51:36.947Z,3.88
2022-12-23T20:54:04.187Z,2.65
2022-12-23T20:56:31.859Z,3.40
2022-12-23T20:59:00.580Z,3.03
2022-12-23T21:01:30.715Z,4.60
2022-12-23T21:03:59.479Z,3.50
2022-12-23T21:06:27.296Z,3.72
2022-12-23T21:08:55.820Z,3.75
2022-12-23T21:11:23.840Z,4.47
2022-12-23T21:13:51.510Z,5.32
2022-12-23T21:16:18.912Z,4.25
2022-12-23T21:18:50.590Z,3.90
2022-12-23T21:21:17.914Z,4.18
2022-12-23T21:23:45.404Z,3.50
2022-12-23T21:26:17.198Z,2.72
2022-12-23T21:28:46.250Z,3.30
2022-12-23T21:31:14.854Z,3.30
2022-12-23T21:33:43.569Z,2.85
2022-12-23T21:36:16.349Z,2.95
2022-12-23T21:38:47.270Z,3.10
2022-12-23T21:41:16.370Z,3.83
2022-12-23T21:43:43.885Z,3.15
2022-12-23T21:46:12.463Z,2.78
2022-12-23T21:48:39.731Z,3.17
2022-12-23T21:51:39.660Z,2.03
2022-12-23T21:54:08.161Z,2.83
2022-12-23T21:56:35.880Z,3.10
2022-12-23T21:59:04.661Z,2.25
2022-12-23T22:01:32.453Z,2.97
2022-12-23T22:03:59.864Z,3.15
2022-12-23T22:06:31.977Z,2.80
2022-12-23T22:08:59.553Z,2.85
2022-12-23T22:11:30.902Z,2.67
2022-12-23T22:13:58.745Z,3.40
2022-12-23T22:16:27.253Z,3.22
2022-12-23T22:18:55.064Z,2.70
2022-12-23T22:21:24.269Z,3.38
2022-12-23T22:23:52.241Z,2.88
2022-12-23T22:26:25.358Z,2.67
2022-12-23T22:28:54.153Z,2.50
2022-12-23T22:31:33.431Z,3.03
2022-12-23T22:34:00.980Z,2.50
2022-12-23T22:36:28.434Z,2.78
2022-12-23T22:38:57.198Z,2.72
2022-12-23T22:41:25.221Z,2.78
2022-12-23T22:43:52.354Z,3.28
2022-12-23T22:46:20.038Z,3.00
2022-12-23T22:48:47.429Z,2.80
2022-12-23T22:51:19.101Z,2.33
2022-12-23T22:53:46.424Z,2.30
2022-12-23T22:56:14.429Z,3.08
2022-12-23T22:58:41.765Z,2.78
2022-12-23T23:01:18.159Z,2.75
2022-12-23T23:03:45.558Z,3.00
2022-12-23T23:06:12.980Z,2.92
2022-12-23T23:08:42.215Z,2.60
2022-12-23T23:11:09.356Z,2.65
2022-12-23T23:13:36.528Z,3.40
2022-12-23T23:16:03.978Z,2.95
2022-12-23T23:18:31.320Z,2.85
2022-12-23T23:20:58.441Z,2.95
2022-12-23T23:23:25.580Z,3.13
2022-12-23T23:25:52.707Z,2.28
2022-12-23T23:28:19.923Z,2.92
2022-12-23T23:30:47.066Z,3.03
2022-12-23T23:33:14.222Z,2.67
2022-12-23T23:35:41.418Z,2.50
2022-12-23T23:38:08.836Z,2.78
2022-12-23T23:40:36.471Z,3.83
2022-12-23T23:43:03.663Z,3.15
2022-12-23T23:45:30.872Z,3.10
2022-12-23T23:47:58.197Z,3.22
2022-12-23T23:50:25.267Z,3.47
2022-12-23T23:52:52.595Z,2.97
2022-12-23T23:55:19.784Z,3.20
2022-12-23T23:57:46.930Z,3.63
